sensor_id;sensor_type;location;lat;lon;timestamp;temperature;humidity
7936;DHT22;4013;49.744;8.118;2022-08-18T00:00:07;22.80;99.90
7936;DHT22;4013;49.744;8.118;2022-08-18T00:02:37;22.80;99.90
7936;DHT22;4013;49.744;8.118;2022-08-18T00:05:05;22.80;99.90
7936;DHT22;4013;49.744;8.118;2022-08-18T00:07:32;22.80;99.90
7936;DHT22;4013;49.744;8.118;2022-08-18T00:10:00;22.80;99.90
7936;DHT22;4013;49.744;8.118;2022-08-18T00:12:30;22.80;99.90
7936;DHT22;4013;49.744;8.118;2022-08-18T00:14:58;22.80;99.90
7936;DHT22;4013;49.744;8.118;2022-08-18T00:17:28;22.80;99.90
7936;DHT22;4013;49.744;8.118;2022-08-18T00:19:55;22.70;99.90
7936;DHT22;4013;49.744;8.118;2022-08-18T00:22:22;22.80;99.90
7936;DHT22;4013;49.744;8.118;2022-08-18T00:24:52;22.80;99.90
7936;DHT22;4013;49.744;8.118;2022-08-18T00:27:21;22.60;99.90
7936;DHT22;4013;49.744;8.118;2022-08-18T00:29:50;22.50;99.90
7936;DHT22;4013;49.744;8.118;2022-08-18T00:32:19;22.50;99.90
7936;DHT22;4013;49.744;8.118;2022-08-18T00:34:46;22.50;99.90
7936;DHT22;4013;49.744;8.118;2022-08-18T00:37:13;22.50;99.90
7936;DHT22;4013;49.744;8.118;2022-08-18T00:39:40;22.40;99.90
7936;DHT22;4013;49.744;8.118;2022-08-18T00:42:16;22.40;99.90
7936;DHT22;4013;49.744;8.118;2022-08-18T00:44:43;22.40;99.90
7936;DHT22;4013;49.744;8.118;2022-08-18T00:47:11;22.50;99.90
7936;DHT22;4013;49.744;8.118;2022-08-18T00:49:40;22.50;99.90
7936;DHT22;4013;49.744;8.118;2022-08-18T00:52:09;22.50;99.90
7936;DHT22;4013;49.744;8.118;2022-08-18T00:54:38;22.50;99.90
7936;DHT22;4013;49.744;8.118;2022-08-18T00:57:08;22.60;99.90
7936;DHT22;4013;49.744;8.118;2022-08-18T00:59:39;22.60;99.90
7936;DHT22;4013;49.744;8.118;2022-08-18T01:02:13;22.50;99.90
7936;DHT22;4013;49.744;8.118;2022-08-18T01:04:44;22.50;99.90
7936;DHT22;4013;49.744;8.118;2022-08-18T01:07:15;22.50;99.90
7936;DHT22;4013;49.744;8.118;2022-08-18T01:09:45;22.40;99.90
7936;DHT22;4013;49.744;8.118;2022-08-18T01:12:12;22.40;99.90
7936;DHT22;4013;49.744;8.118;2022-08-18T01:14:39;22.30;99.90
7936;DHT22;4013;49.744;8.118;2022-08-18T01:17:06;22.40;99.90
7936;DHT22;4013;49.744;8.118;2022-08-18T01:19:52;22.40;99.90
7936;DHT22;4013;49.744;8.118;2022-08-18T01:22:47;22.30;99.90
7936;DHT22;4013;49.744;8.118;2022-08-18T01:25:17;22.30;99.90
7936;DHT22;4013;49.744;8.118;2022-08-18T01:28:04;22.30;99.90
7936;DHT22;4013;49.744;8.118;2022-08-18T01:30:42;22.20;99.90
7936;DHT22;4013;49.744;8.118;2022-08-18T01:33:09;22.30;99.90
7936;DHT22;4013;49.744;8.118;2022-08-18T01:35:37;22.10;99.90
7936;DHT22;4013;49.744;8.118;2022-08-18T01:38:07;22.10;99.90
7936;DHT22;4013;49.744;8.118;2022-08-18T01:40:34;22.10;99.90
7936;DHT22;4013;49.744;8.118;2022-08-18T01:43:01;22.10;99.90
7936;DHT22;4013;49.744;8.118;2022-08-18T01:45:28;22.20;99.90
7936;DHT22;4013;49.744;8.118;2022-08-18T01:47:58;22.20;99.90
7936;DHT22;4013;49.744;8.118;2022-08-18T01:50:25;22.20;99.90
7936;DHT22;4013;49.744;8.118;2022-08-18T01:52:52;22.30;99.90
7936;DHT22;4013;49.744;8.118;2022-08-18T01:55:21;22.30;99.90
7936;DHT22;4013;49.744;8.118;2022-08-18T01:57:47;22.40;99.90
7936;DHT22;4013;49.744;8.118;2022-08-18T02:00:16;22.30;99.90
7936;DHT22;4013;49.744;8.118;2022-08-18T02:02:44;22.20;99.90
7936;DHT22;4013;49.744;8.118;2022-08-18T02:05:15;22.20;99.90
7936;DHT22;4013;49.744;8.118;2022-08-18T02:07:42;22.20;99.90
7936;DHT22;4013;49.744;8.118;2022-08-18T02:10:10;22.20;99.90
7936;DHT22;4013;49.744;8.118;2022-08-18T02:12:39;22.30;99.90
7936;DHT22;4013;49.744;8.118;2022-08-18T02:15:08;22.20;99.90
7936;DHT22;4013;49.744;8.118;2022-08-18T02:17:37;22.20;99.90
7936;DHT22;4013;49.744;8.118;2022-08-18T02:20:05;22.20;99.90
7936;DHT22;4013;49.744;8.118;2022-08-18T02:22:33;22.20;99.90
7936;DHT22;4013;49.744;8.118;2022-08-18T02:25:00;22.30;99.90
7936;DHT22;4013;49.744;8.118;2022-08-18T02:27:27;22.20;99.90
7936;DHT22;4013;49.744;8.118;2022-08-18T02:29:58;22.20;99.90
7936;DHT22;4013;49.744;8.118;2022-08-18T02:32:25;22.20;99.90
7936;DHT22;4013;49.744;8.118;2022-08-18T02:34:52;22.10;99.90
7936;DHT22;4013;49.744;8.118;2022-08-18T02:37:19;22.10;99.90
7936;DHT22;4013;49.744;8.118;2022-08-18T02:39:47;22.10;99.90
7936;DHT22;4013;49.744;8.118;2022-08-18T02:42:14;22.20;99.90
7936;DHT22;4013;49.744;8.118;2022-08-18T02:44:42;22.10;99.90
7936;DHT22;4013;49.744;8.118;2022-08-18T02:47:10;22.20;99.90
7936;DHT22;4013;49.744;8.118;2022-08-18T02:49:37;22.20;99.90
7936;DHT22;4013;49.744;8.118;2022-08-18T02:52:04;22.10;99.90
7936;DHT22;4013;49.744;8.118;2022-08-18T02:54:31;22.10;99.90
7936;DHT22;4013;49.744;8.118;2022-08-18T02:57:05;22.20;99.90
7936;DHT22;4013;49.744;8.118;2022-08-18T02:59:33;22.10;99.90
7936;DHT22;4013;49.744;8.118;2022-08-18T03:01:59;22.10;99.90
7936;DHT22;4013;49.744;8.118;2022-08-18T03:04:29;22.10;99.90
7936;DHT22;4013;49.744;8.118;2022-08-18T03:06:57;22.10;99.90
7936;DHT22;4013;49.744;8.118;2022-08-18T03:09:26;22.10;99.90
7936;DHT22;4013;49.744;8.118;2022-08-18T03:11:53;22.10;99.90
7936;DHT22;4013;49.744;8.118;2022-08-18T03:14:20;22.10;99.90
7936;DHT22;4013;49.744;8.118;2022-08-18T03:16:47;22.10;99.90
7936;DHT22;4013;49.744;8.118;2022-08-18T03:19:15;22.00;99.90
7936;DHT22;4013;49.744;8.118;2022-08-18T03:21:45;22.00;99.90
7936;DHT22;4013;49.744;8.118;2022-08-18T03:24:12;22.00;99.90
7936;DHT22;4013;49.744;8.118;2022-08-18T03:26:42;22.00;99.90
7936;DHT22;4013;49.744;8.118;2022-08-18T03:29:10;22.00;99.90
7936;DHT22;4013;49.744;8.118;2022-08-18T03:31:37;21.90;99.90
7936;DHT22;4013;49.744;8.118;2022-08-18T03:34:05;21.80;99.90
7936;DHT22;4013;49.744;8.118;2022-08-18T03:36:33;21.70;99.90
7936;DHT22;4013;49.744;8.118;2022-08-18T03:39:04;21.70;99.90
7936;DHT22;4013;49.744;8.118;2022-08-18T03:41:32;21.70;99.90
7936;DHT22;4013;49.744;8.118;2022-08-18T03:44:00;21.70;99.90
7936;DHT22;4013;49.744;8.118;2022-08-18T03:46:27;21.70;99.90
7936;DHT22;4013;49.744;8.118;2022-08-18T03:48:56;21.70;99.90
7936;DHT22;4013;49.744;8.118;2022-08-18T03:51:26;21.70;99.90
7936;DHT22;4013;49.744;8.118;2022-08-18T03:53:54;21.70;99.90
7936;DHT22;4013;49.744;8.118;2022-08-18T03:56:26;21.60;99.90
7936;DHT22;4013;49.744;8.118;2022-08-18T03:58:55;21.60;99.90
7936;DHT22;4013;49.744;8.118;2022-08-18T04:01:25;21.60;99.90
7936;DHT22;4013;49.744;8.118;2022-08-18T04:03:57;21.50;99.90
7936;DHT22;4013;49.744;8.118;2022-08-18T04:06:27;21.40;99.90
7936;DHT22;4013;49.744;8.118;2022-08-18T04:08:55;21.40;99.90
7936;DHT22;4013;49.744;8.118;2022-08-18T04:11:22;21.40;99.90
7936;DHT22;4013;49.744;8.118;2022-08-18T04:13:51;21.30;99.90
7936;DHT22;4013;49.744;8.118;2022-08-18T04:16:18;21.30;99.90
7936;DHT22;4013;49.744;8.118;2022-08-18T04:18:45;21.30;99.90
7936;DHT22;4013;49.744;8.118;2022-08-18T04:21:12;21.40;99.90
7936;DHT22;4013;49.744;8.118;2022-08-18T04:23:39;21.40;99.90
7936;DHT22;4013;49.744;8.118;2022-08-18T04:26:08;21.40;99.90
7936;DHT22;4013;49.744;8.118;2022-08-18T04:28:35;21.30;99.90
7936;DHT22;4013;49.744;8.118;2022-08-18T04:31:08;21.40;99.90
7936;DHT22;4013;49.744;8.118;2022-08-18T04:33:36;21.40;99.90
7936;DHT22;4013;49.744;8.118;2022-08-18T04:36:07;21.40;99.90
7936;DHT22;4013;49.744;8.118;2022-08-18T04:38:35;21.40;99.90
7936;DHT22;4013;49.744;8.118;2022-08-18T04:41:02;21.30;99.90
7936;DHT22;4013;49.744;8.118;2022-08-18T04:43:29;21.30;99.90
7936;DHT22;4013;49.744;8.118;2022-08-18T04:45:57;21.30;99.90
7936;DHT22;4013;49.744;8.118;2022-08-18T04:48:28;21.40;99.90
7936;DHT22;4013;49.744;8.118;2022-08-18T04:51:02;21.40;99.90
7936;DHT22;4013;49.744;8.118;2022-08-18T04:53:29;21.40;99.90
7936;DHT22;4013;49.744;8.118;2022-08-18T04:56:14;21.40;99.90
7936;DHT22;4013;49.744;8.118;2022-08-18T04:58:42;21.40;99.90
7936;DHT22;4013;49.744;8.118;2022-08-18T05:01:09;21.40;99.90
7936;DHT22;4013;49.744;8.118;2022-08-18T05:03:38;21.40;99.90
7936;DHT22;4013;49.744;8.118;2022-08-18T05:06:06;21.40;99.90
7936;DHT22;4013;49.744;8.118;2022-08-18T05:08:33;21.40;99.90
7936;DHT22;4013;49.744;8.118;2022-08-18T05:11:00;21.40;99.90
7936;DHT22;4013;49.744;8.118;2022-08-18T05:13:27;21.40;99.90
7936;DHT22;4013;49.744;8.118;2022-08-18T05:15:55;21.40;99.90
7936;DHT22;4013;49.744;8.118;2022-08-18T05:18:22;21.40;99.90
7936;DHT22;4013;49.744;8.118;2022-08-18T05:20:52;21.40;99.90
7936;DHT22;4013;49.744;8.118;2022-08-18T05:23:19;21.40;99.90
7936;DHT22;4013;49.744;8.118;2022-08-18T05:25:47;21.40;99.90
7936;DHT22;4013;49.744;8.118;2022-08-18T05:28:15;21.40;99.90
7936;DHT22;4013;49.744;8.118;2022-08-18T05:30:42;21.40;99.90
7936;DHT22;4013;49.744;8.118;2022-08-18T05:33:09;21.40;99.90
7936;DHT22;4013;49.744;8.118;2022-08-18T05:35:41;21.50;99.90
7936;DHT22;4013;49.744;8.118;2022-08-18T05:38:24;21.40;99.90
7936;DHT22;4013;49.744;8.118;2022-08-18T05:41:05;21.40;99.90
7936;DHT22;4013;49.744;8.118;2022-08-18T05:43:32;21.40;99.90
7936;DHT22;4013;49.744;8.118;2022-08-18T05:46:02;21.30;99.90
7936;DHT22;4013;49.744;8.118;2022-08-18T05:48:31;21.30;99.90
7936;DHT22;4013;49.744;8.118;2022-08-18T05:51:04;21.30;99.90
7936;DHT22;4013;49.744;8.118;2022-08-18T05:53:34;21.30;99.90
7936;DHT22;4013;49.744;8.118;2022-08-18T05:56:24;21.30;99.90
7936;DHT22;4013;49.744;8.118;2022-08-18T05:59:12;21.40;99.90
7936;DHT22;4013;49.744;8.118;2022-08-18T06:01:45;21.30;99.90
7936;DHT22;4013;49.744;8.118;2022-08-18T06:04:32;21.30;99.90
7936;DHT22;4013;49.744;8.118;2022-08-18T06:07:03;21.30;99.90
7936;DHT22;4013;49.744;8.118;2022-08-18T06:09:36;21.20;99.90
7936;DHT22;4013;49.744;8.118;2022-08-18T06:12:12;21.10;99.90
7936;DHT22;4013;49.744;8.118;2022-08-18T06:14:40;21.00;99.90
7936;DHT22;4013;49.744;8.118;2022-08-18T06:17:20;21.00;99.90
7936;DHT22;4013;49.744;8.118;2022-08-18T06:19:59;20.90;99.90
7936;DHT22;4013;49.744;8.118;2022-08-18T06:22:34;20.80;99.90
7936;DHT22;4013;49.744;8.118;2022-08-18T06:25:13;20.80;99.90
7936;DHT22;4013;49.744;8.118;2022-08-18T06:27:48;20.90;99.90
7936;DHT22;4013;49.744;8.118;2022-08-18T06:30:24;20.80;99.90
7936;DHT22;4013;49.744;8.118;2022-08-18T06:33:15;20.70;99.90
7936;DHT22;4013;49.744;8.118;2022-08-18T06:35:47;20.80;99.90
7936;DHT22;4013;49.744;8.118;2022-08-18T06:38:29;20.80;99.90
7936;DHT22;4013;49.744;8.118;2022-08-18T06:41:13;20.70;99.90
7936;DHT22;4013;49.744;8.118;2022-08-18T06:43:49;20.70;99.90
7936;DHT22;4013;49.744;8.118;2022-08-18T06:46:22;20.60;99.90
7936;DHT22;4013;49.744;8.118;2022-08-18T06:48:53;20.60;99.90
7936;DHT22;4013;49.744;8.118;2022-08-18T06:51:23;20.60;99.90
7936;DHT22;4013;49.744;8.118;2022-08-18T06:53:56;20.70;99.90
7936;DHT22;4013;49.744;8.118;2022-08-18T06:56:31;20.70;99.90
7936;DHT22;4013;49.744;8.118;2022-08-18T06:59:15;20.80;99.90
7936;DHT22;4013;49.744;8.118;2022-08-18T07:01:43;20.90;99.90
7936;DHT22;4013;49.744;8.118;2022-08-18T07:04:34;21.00;99.90
7936;DHT22;4013;49.744;8.118;2022-08-18T07:07:13;21.00;99.90
7936;DHT22;4013;49.744;8.118;2022-08-18T07:09:40;21.10;99.90
7936;DHT22;4013;49.744;8.118;2022-08-18T07:12:10;21.10;99.90
7936;DHT22;4013;49.744;8.118;2022-08-18T07:14:45;21.10;99.90
7936;DHT22;4013;49.744;8.118;2022-08-18T07:17:19;21.10;99.90
7936;DHT22;4013;49.744;8.118;2022-08-18T07:19:55;21.10;99.90
7936;DHT22;4013;49.744;8.118;2022-08-18T07:22:22;21.20;99.90
7936;DHT22;4013;49.744;8.118;2022-08-18T07:24:51;21.20;99.90
7936;DHT22;4013;49.744;8.118;2022-08-18T07:27:38;21.10;99.90
7936;DHT22;4013;49.744;8.118;2022-08-18T07:30:08;21.20;99.90
7936;DHT22;4013;49.744;8.118;2022-08-18T07:32:43;21.20;99.90
7936;DHT22;4013;49.744;8.118;2022-08-18T07:35:14;21.20;99.90
7936;DHT22;4013;49.744;8.118;2022-08-18T07:37:47;21.10;99.90
7936;DHT22;4013;49.744;8.118;2022-08-18T07:40:34;21.10;99.90
7936;DHT22;4013;49.744;8.118;2022-08-18T07:43:08;21.10;99.90
7936;DHT22;4013;49.744;8.118;2022-08-18T07:45:40;21.10;99.90
7936;DHT22;4013;49.744;8.118;2022-08-18T07:48:11;21.10;99.90
7936;DHT22;4013;49.744;8.118;2022-08-18T07:50:44;21.10;99.90
7936;DHT22;4013;49.744;8.118;2022-08-18T07:53:23;21.20;99.90
7936;DHT22;4013;49.744;8.118;2022-08-18T07:55:57;21.20;99.90
7936;DHT22;4013;49.744;8.118;2022-08-18T07:58:33;21.20;99.90
7936;DHT22;4013;49.744;8.118;2022-08-18T08:01:04;21.20;99.90
7936;DHT22;4013;49.744;8.118;2022-08-18T08:03:40;21.10;99.90
7936;DHT22;4013;49.744;8.118;2022-08-18T08:06:13;21.20;99.90
7936;DHT22;4013;49.744;8.118;2022-08-18T08:08:44;21.20;99.90
7936;DHT22;4013;49.744;8.118;2022-08-18T08:11:23;21.20;99.90
7936;DHT22;4013;49.744;8.118;2022-08-18T08:14:03;21.20;99.90
7936;DHT22;4013;49.744;8.118;2022-08-18T08:16:39;21.20;99.90
7936;DHT22;4013;49.744;8.118;2022-08-18T08:19:28;21.20;99.90
7936;DHT22;4013;49.744;8.118;2022-08-18T08:22:04;21.10;99.90
7936;DHT22;4013;49.744;8.118;2022-08-18T08:24:42;21.10;99.90
7936;DHT22;4013;49.744;8.118;2022-08-18T08:27:18;21.10;99.90
7936;DHT22;4013;49.744;8.118;2022-08-18T08:29:58;21.20;99.90
7936;DHT22;4013;49.744;8.118;2022-08-18T08:32:31;21.20;99.90
7936;DHT22;4013;49.744;8.118;2022-08-18T08:35:05;21.20;99.90
7936;DHT22;4013;49.744;8.118;2022-08-18T08:37:40;21.20;99.90
7936;DHT22;4013;49.744;8.118;2022-08-18T08:40:12;21.30;99.90
7936;DHT22;4013;49.744;8.118;2022-08-18T08:42:46;21.20;99.90
7936;DHT22;4013;49.744;8.118;2022-08-18T08:45:22;21.20;99.90
7936;DHT22;4013;49.744;8.118;2022-08-18T08:47:55;21.30;99.90
7936;DHT22;4013;49.744;8.118;2022-08-18T08:50:26;21.30;99.90
7936;DHT22;4013;49.744;8.118;2022-08-18T08:52:57;21.20;99.90
7936;DHT22;4013;49.744;8.118;2022-08-18T08:55:27;21.10;99.90
7936;DHT22;4013;49.744;8.118;2022-08-18T08:58:00;21.10;99.90
7936;DHT22;4013;49.744;8.118;2022-08-18T09:00:33;21.20;99.90
7936;DHT22;4013;49.744;8.118;2022-08-18T09:03:22;21.20;99.90
7936;DHT22;4013;49.744;8.118;2022-08-18T09:05:56;21.30;99.90
7936;DHT22;4013;49.744;8.118;2022-08-18T09:08:41;21.40;99.90
7936;DHT22;4013;49.744;8.118;2022-08-18T09:14:44;21.40;99.90
7936;DHT22;4013;49.744;8.118;2022-08-18T09:17:34;21.50;99.90
7936;DHT22;4013;49.744;8.118;2022-08-18T09:20:17;21.50;99.90
7936;DHT22;4013;49.744;8.118;2022-08-18T09:22:52;21.50;99.90
7936;DHT22;4013;49.744;8.118;2022-08-18T09:25:42;21.50;99.90
7936;DHT22;4013;49.744;8.118;2022-08-18T09:28:14;21.50;99.90
7936;DHT22;4013;49.744;8.118;2022-08-18T09:30:46;21.50;99.90
7936;DHT22;4013;49.744;8.118;2022-08-18T09:33:19;21.70;99.90
7936;DHT22;4013;49.744;8.118;2022-08-18T09:36:04;21.80;99.90
7936;DHT22;4013;49.744;8.118;2022-08-18T09:38:45;21.80;99.90
7936;DHT22;4013;49.744;8.118;2022-08-18T09:41:35;21.80;99.90
7936;DHT22;4013;49.744;8.118;2022-08-18T09:44:12;21.80;99.90
7936;DHT22;4013;49.744;8.118;2022-08-18T09:46:58;21.80;99.90
7936;DHT22;4013;49.744;8.118;2022-08-18T09:49:47;21.90;99.90
7936;DHT22;4013;49.744;8.118;2022-08-18T09:55:54;22.00;99.90
7936;DHT22;4013;49.744;8.118;2022-08-18T09:58:49;21.90;99.90
7936;DHT22;4013;49.744;8.118;2022-08-18T10:01:39;21.90;99.90
7936;DHT22;4013;49.744;8.118;2022-08-18T10:04:28;21.80;99.90
7936;DHT22;4013;49.744;8.118;2022-08-18T10:07:28;21.90;99.90
7936;DHT22;4013;49.744;8.118;2022-08-18T10:10:09;22.00;99.90
7936;DHT22;4013;49.744;8.118;2022-08-18T10:12:55;21.90;99.90
7936;DHT22;4013;49.744;8.118;2022-08-18T10:15:36;22.00;99.90
7936;DHT22;4013;49.744;8.118;2022-08-18T10:18:25;22.20;99.90
7936;DHT22;4013;49.744;8.118;2022-08-18T10:21:01;22.30;99.90
7936;DHT22;4013;49.744;8.118;2022-08-18T10:23:54;22.40;99.90
7936;DHT22;4013;49.744;8.118;2022-08-18T10:29:49;22.50;99.90
7936;DHT22;4013;49.744;8.118;2022-08-18T10:38:42;23.10;99.90
7936;DHT22;4013;49.744;8.118;2022-08-18T10:41:25;23.20;99.90
7936;DHT22;4013;49.744;8.118;2022-08-18T10:43:54;23.20;99.90
7936;DHT22;4013;49.744;8.118;2022-08-18T10:46:25;23.20;99.90
7936;DHT22;4013;49.744;8.118;2022-08-18T10:49:06;23.40;99.90
7936;DHT22;4013;49.744;8.118;2022-08-18T10:52:07;23.40;99.90
7936;DHT22;4013;49.744;8.118;2022-08-18T10:54:55;23.40;99.90
7936;DHT22;4013;49.744;8.118;2022-08-18T10:57:31;23.30;99.90
7936;DHT22;4013;49.744;8.118;2022-08-18T11:00:03;23.30;99.90
7936;DHT22;4013;49.744;8.118;2022-08-18T11:02:48;23.20;99.90
7936;DHT22;4013;49.744;8.118;2022-08-18T11:05:22;23.40;99.90
7936;DHT22;4013;49.744;8.118;2022-08-18T11:07:56;23.50;99.90
7936;DHT22;4013;49.744;8.118;2022-08-18T11:10:35;23.70;99.90
7936;DHT22;4013;49.744;8.118;2022-08-18T11:13:13;23.80;99.90
7936;DHT22;4013;49.744;8.118;2022-08-18T11:15:53;23.80;99.90
7936;DHT22;4013;49.744;8.118;2022-08-18T11:18:30;23.80;99.90
7936;DHT22;4013;49.744;8.118;2022-08-18T11:21:22;23.80;99.90
7936;DHT22;4013;49.744;8.118;2022-08-18T11:24:02;24.00;99.90
7936;DHT22;4013;49.744;8.118;2022-08-18T11:26:30;24.20;99.90
7936;DHT22;4013;49.744;8.118;2022-08-18T11:29:00;24.20;99.90
7936;DHT22;4013;49.744;8.118;2022-08-18T11:31:27;24.30;99.90
7936;DHT22;4013;49.744;8.118;2022-08-18T11:33:54;24.30;99.90
7936;DHT22;4013;49.744;8.118;2022-08-18T11:36:29;24.30;99.90
7936;DHT22;4013;49.744;8.118;2022-08-18T11:38:57;24.30;99.90
7936;DHT22;4013;49.744;8.118;2022-08-18T11:41:26;24.30;99.90
7936;DHT22;4013;49.744;8.118;2022-08-18T11:43:55;24.40;99.90
7936;DHT22;4013;49.744;8.118;2022-08-18T11:46:29;24.40;99.90
7936;DHT22;4013;49.744;8.118;2022-08-18T11:48:57;24.40;99.90
7936;DHT22;4013;49.744;8.118;2022-08-18T11:51:25;24.60;99.90
7936;DHT22;4013;49.744;8.118;2022-08-18T11:53:56;24.60;99.90
7936;DHT22;4013;49.744;8.118;2022-08-18T11:56:25;24.40;99.90
7936;DHT22;4013;49.744;8.118;2022-08-18T11:58:55;24.50;99.90
7936;DHT22;4013;49.744;8.118;2022-08-18T12:01:36;24.50;99.90
7936;DHT22;4013;49.744;8.118;2022-08-18T12:04:13;24.50;99.90
7936;DHT22;4013;49.744;8.118;2022-08-18T12:07:00;24.60;99.90
7936;DHT22;4013;49.744;8.118;2022-08-18T12:09:33;24.70;99.90
7936;DHT22;4013;49.744;8.118;2022-08-18T12:12:04;24.80;99.90
7936;DHT22;4013;49.744;8.118;2022-08-18T12:17:17;24.80;99.90
7936;DHT22;4013;49.744;8.118;2022-08-18T12:19:44;24.70;99.90
7936;DHT22;4013;49.744;8.118;2022-08-18T12:22:15;24.70;99.90
7936;DHT22;4013;49.744;8.118;2022-08-18T12:24:43;24.70;99.90
7936;DHT22;4013;49.744;8.118;2022-08-18T12:27:11;24.80;99.90
7936;DHT22;4013;49.744;8.118;2022-08-18T12:29:39;24.70;99.90
7936;DHT22;4013;49.744;8.118;2022-08-18T12:32:06;24.70;99.90
7936;DHT22;4013;49.744;8.118;2022-08-18T12:34:34;24.60;99.90
7936;DHT22;4013;49.744;8.118;2022-08-18T12:37:02;24.70;99.90
7936;DHT22;4013;49.744;8.118;2022-08-18T12:39:31;24.70;99.90
7936;DHT22;4013;49.744;8.118;2022-08-18T12:41:58;24.70;99.90
7936;DHT22;4013;49.744;8.118;2022-08-18T12:44:25;24.50;99.90
7936;DHT22;4013;49.744;8.118;2022-08-18T12:46:52;24.50;99.90
7936;DHT22;4013;49.744;8.118;2022-08-18T12:49:22;24.50;99.90
7936;DHT22;4013;49.744;8.118;2022-08-18T12:51:51;24.60;99.90
7936;DHT22;4013;49.744;8.118;2022-08-18T12:54:20;24.60;99.90
7936;DHT22;4013;49.744;8.118;2022-08-18T12:56:49;24.50;99.90
7936;DHT22;4013;49.744;8.118;2022-08-18T12:59:16;24.50;99.90
7936;DHT22;4013;49.744;8.118;2022-08-18T13:01:43;24.50;99.90
7936;DHT22;4013;49.744;8.118;2022-08-18T13:04:10;24.50;99.90
7936;DHT22;4013;49.744;8.118;2022-08-18T13:06:40;24.40;99.90
7936;DHT22;4013;49.744;8.118;2022-08-18T13:09:10;24.40;99.90
7936;DHT22;4013;49.744;8.118;2022-08-18T13:11:37;24.50;99.90
7936;DHT22;4013;49.744;8.118;2022-08-18T13:14:05;24.50;99.90
7936;DHT22;4013;49.744;8.118;2022-08-18T13:16:35;24.50;99.90
7936;DHT22;4013;49.744;8.118;2022-08-18T13:19:02;24.50;99.90
7936;DHT22;4013;49.744;8.118;2022-08-18T13:21:30;24.50;99.90
7936;DHT22;4013;49.744;8.118;2022-08-18T13:23:56;24.50;99.90
7936;DHT22;4013;49.744;8.118;2022-08-18T13:26:28;24.50;99.90
7936;DHT22;4013;49.744;8.118;2022-08-18T13:28:55;24.50;99.90
7936;DHT22;4013;49.744;8.118;2022-08-18T13:31:22;24.50;99.90
7936;DHT22;4013;49.744;8.118;2022-08-18T13:33:50;24.40;99.90
7936;DHT22;4013;49.744;8.118;2022-08-18T13:36:17;24.50;99.90
7936;DHT22;4013;49.744;8.118;2022-08-18T13:38:44;24.50;99.90
7936;DHT22;4013;49.744;8.118;2022-08-18T13:41:11;24.60;99.90
7936;DHT22;4013;49.744;8.118;2022-08-18T13:43:41;24.70;99.90
7936;DHT22;4013;49.744;8.118;2022-08-18T13:46:10;24.70;99.90
7936;DHT22;4013;49.744;8.118;2022-08-18T13:48:37;24.70;99.90
7936;DHT22;4013;49.744;8.118;2022-08-18T13:51:05;24.70;99.90
7936;DHT22;4013;49.744;8.118;2022-08-18T13:53:35;24.80;99.90
7936;DHT22;4013;49.744;8.118;2022-08-18T13:56:03;25.00;99.90
7936;DHT22;4013;49.744;8.118;2022-08-18T13:58:30;24.80;99.90
7936;DHT22;4013;49.744;8.118;2022-08-18T14:01:01;24.90;99.90
7936;DHT22;4013;49.744;8.118;2022-08-18T14:03:28;25.00;99.90
7936;DHT22;4013;49.744;8.118;2022-08-18T14:05:57;25.20;99.90
7936;DHT22;4013;49.744;8.118;2022-08-18T14:08:25;25.30;99.90
7936;DHT22;4013;49.744;8.118;2022-08-18T14:10:54;25.50;99.90
7936;DHT22;4013;49.744;8.118;2022-08-18T14:13:22;25.40;99.90
7936;DHT22;4013;49.744;8.118;2022-08-18T14:15:50;25.60;99.90
7936;DHT22;4013;49.744;8.118;2022-08-18T14:18:19;26.10;99.90
7936;DHT22;4013;49.744;8.118;2022-08-18T14:20:46;26.60;99.90
7936;DHT22;4013;49.744;8.118;2022-08-18T14:23:31;26.90;99.90
7936;DHT22;4013;49.744;8.118;2022-08-18T14:26:15;26.80;99.90
7936;DHT22;4013;49.744;8.118;2022-08-18T14:28:59;26.70;99.90
7936;DHT22;4013;49.744;8.118;2022-08-18T14:31:26;26.60;99.90
7936;DHT22;4013;49.744;8.118;2022-08-18T14:33:55;26.50;99.90
7936;DHT22;4013;49.744;8.118;2022-08-18T14:36:22;26.60;99.90
7936;DHT22;4013;49.744;8.118;2022-08-18T14:38:50;26.70;99.90
7936;DHT22;4013;49.744;8.118;2022-08-18T14:41:17;26.60;99.90
7936;DHT22;4013;49.744;8.118;2022-08-18T14:43:44;26.60;99.90
7936;DHT22;4013;49.744;8.118;2022-08-18T14:46:11;26.60;99.90
7936;DHT22;4013;49.744;8.118;2022-08-18T14:48:39;26.50;99.90
7936;DHT22;4013;49.744;8.118;2022-08-18T14:51:07;26.50;99.90
7936;DHT22;4013;49.744;8.118;2022-08-18T14:53:35;26.30;99.90
7936;DHT22;4013;49.744;8.118;2022-08-18T14:56:03;26.40;99.90
7936;DHT22;4013;49.744;8.118;2022-08-18T14:58:33;26.50;99.90
7936;DHT22;4013;49.744;8.118;2022-08-18T15:01:02;26.60;99.90
7936;DHT22;4013;49.744;8.118;2022-08-18T15:03:30;26.70;99.90
7936;DHT22;4013;49.744;8.118;2022-08-18T15:05:59;26.80;99.90
7936;DHT22;4013;49.744;8.118;2022-08-18T15:08:28;26.80;99.90
7936;DHT22;4013;49.744;8.118;2022-08-18T15:10:55;26.70;99.90
7936;DHT22;4013;49.744;8.118;2022-08-18T15:13:23;26.60;99.90
7936;DHT22;4013;49.744;8.118;2022-08-18T15:15:50;26.50;99.90
7936;DHT22;4013;49.744;8.118;2022-08-18T15:18:17;26.60;99.90
7936;DHT22;4013;49.744;8.118;2022-08-18T15:20:44;26.60;99.90
7936;DHT22;4013;49.744;8.118;2022-08-18T15:23:30;26.50;99.90
7936;DHT22;4013;49.744;8.118;2022-08-18T15:26:21;26.30;99.90
7936;DHT22;4013;49.744;8.118;2022-08-18T15:28:49;26.20;99.90
7936;DHT22;4013;49.744;8.118;2022-08-18T15:31:16;26.30;99.90
7936;DHT22;4013;49.744;8.118;2022-08-18T15:33:43;26.30;99.90
7936;DHT22;4013;49.744;8.118;2022-08-18T15:36:11;26.30;99.90
7936;DHT22;4013;49.744;8.118;2022-08-18T15:38:42;26.40;99.90
7936;DHT22;4013;49.744;8.118;2022-08-18T15:41:26;26.30;99.90
7936;DHT22;4013;49.744;8.118;2022-08-18T15:43:54;26.20;99.90
7936;DHT22;4013;49.744;8.118;2022-08-18T15:46:21;26.20;99.90
7936;DHT22;4013;49.744;8.118;2022-08-18T15:48:48;26.10;99.90
7936;DHT22;4013;49.744;8.118;2022-08-18T15:51:15;26.00;99.90
7936;DHT22;4013;49.744;8.118;2022-08-18T15:53:43;26.00;99.90
7936;DHT22;4013;49.744;8.118;2022-08-18T15:56:12;25.80;99.90
7936;DHT22;4013;49.744;8.118;2022-08-18T15:58:39;25.70;99.90
7936;DHT22;4013;49.744;8.118;2022-08-18T16:01:08;25.70;99.90
7936;DHT22;4013;49.744;8.118;2022-08-18T16:03:35;25.60;99.90
7936;DHT22;4013;49.744;8.118;2022-08-18T16:06:03;25.60;99.90
7936;DHT22;4013;49.744;8.118;2022-08-18T16:08:30;25.60;99.90
7936;DHT22;4013;49.744;8.118;2022-08-18T16:11:06;25.60;99.90
7936;DHT22;4013;49.744;8.118;2022-08-18T16:13:34;25.60;99.90
7936;DHT22;4013;49.744;8.118;2022-08-18T16:16:07;25.60;99.90
7936;DHT22;4013;49.744;8.118;2022-08-18T16:18:34;25.60;99.90
7936;DHT22;4013;49.744;8.118;2022-08-18T16:21:03;25.60;99.90
7936;DHT22;4013;49.744;8.118;2022-08-18T16:23:32;25.60;99.90
7936;DHT22;4013;49.744;8.118;2022-08-18T16:26:01;25.50;99.90
7936;DHT22;4013;49.744;8.118;2022-08-18T16:28:28;25.50;99.90
7936;DHT22;4013;49.744;8.118;2022-08-18T16:30:56;25.40;99.90
7936;DHT22;4013;49.744;8.118;2022-08-18T16:33:24;25.30;99.90
7936;DHT22;4013;49.744;8.118;2022-08-18T16:35:51;25.30;99.90
7936;DHT22;4013;49.744;8.118;2022-08-18T16:38:18;25.30;99.90
7936;DHT22;4013;49.744;8.118;2022-08-18T16:40:45;25.30;99.90
7936;DHT22;4013;49.744;8.118;2022-08-18T16:43:14;25.30;99.90
7936;DHT22;4013;49.744;8.118;2022-08-18T16:45:41;25.30;99.90
7936;DHT22;4013;49.744;8.118;2022-08-18T16:48:08;25.20;99.90
7936;DHT22;4013;49.744;8.118;2022-08-18T16:50:36;25.10;99.90